KCAR/CAR METAR and TAF weather

Enter ICAO airport designator
Station Type Date Time Source
KCAR METAR 2019/02/16 03:54 UTC NOAA

KCAR 160354Z AUTO 16011G21KT 10SM OVC008 01/M02 A2951 RMK AO2 PK WND 16028/0316 UPB0257E45SNE0257B0259E12 SLP004 P0002 I1000 T00061017


Station Type Date Time Source
KCAR Decoded METAR 2019/02/16 03:54 UTC NOAA

CARIBOU MUNICIPAL AIRPORT, ME, United States (KCAR) 46-52N 68-01W 191M
Feb 15, 2019 - 10:54 PM EST / 2019.02.16 0354 UTC
Wind: from the SSE (160 degrees) at 13 MPH (11 KT) gusting to 24 MPH (21 KT):0
Visibility: 10 mile(s):0
Sky conditions: overcast
Precipitation last hour: 0.02 inches
Temperature: 33.1 F (0.6 C)
Windchill: 23 F (-5 C):1
Dew Point: 28.9 F (-1.7 C)
Relative Humidity: 84%
Pressure (altimeter): 29.51 in. Hg (999 hPa)
ob: KCAR 160354Z AUTO 16011G21KT 10SM OVC008 01/M02 A2951 RMK AO2 PK WND 16028/0316 UPB0257E45SNE0257B0259E12 SLP004 P0002 I1000 T00061017
cycle: 4

Station Type Date Time Source
KCAR TAF 2019/02/15 18:40 UTC NOAA

TAF KCAR 151738Z 1518/1618 14010G18KT 1SM -SN BR OVC015
TEMPO 1518/1522 3/4SM -SN BR OVC010
FM152200 15012G22KT 3/4SM -SN BR OVC008
FM160300 18012G20KT 1SM -SNRA BR OVC008
FM160600 23010G18KT 3SM -SNRA BR OVC008
FM160900 24010KT P6SM VCSH OVC015
FM161200 25012KT P6SM SCT025 BKN035


Example: see airport list